Medill, Missouri
Current Conditions -  °F | °C
As of 7:15 AM on Saturday 22 Nov 2014 (Local Time) from KEOK Reporting Station
Overcast Overcast  
Wind Chill: 43°   Ceiling: 1600
Heat Index: 48°   Visibility: 10mi
Dew Point: 45°   Wind: 13mph
Humidity: 87%   Direction: 200°SSW
Pressure: 29.97"   Gusts: 18mph
Location:  40.4336°N, 91.756°W
Report Text: KEOK 221315Z AUTO 20011G16KT 10SM OVC016 09/07 A2997 RMK AO2
Loading
Personal Weather Stations






























Interactive Weather Map New forecast layout! Learn more

10-Day Weather Forecast

Advertisements
Track Severe Weather on mobile